createdAt,value
2018-08-22T00:00:15.537Z,26.64
2018-08-22T00:02:43.858Z,26.63
2018-08-22T00:05:12.199Z,26.64
2018-08-22T00:07:40.639Z,26.63
2018-08-22T00:10:09.294Z,26.62
2018-08-22T00:12:37.621Z,26.62
2018-08-22T00:15:05.974Z,26.63
2018-08-22T00:17:34.298Z,26.61
2018-08-22T00:20:02.690Z,26.60
2018-08-22T00:22:31.027Z,26.59
2018-08-22T00:24:59.331Z,26.58
2018-08-22T00:27:27.629Z,26.57
2018-08-22T00:29:55.939Z,26.58
2018-08-22T00:32:24.290Z,26.56
2018-08-22T00:34:52.587Z,26.55
2018-08-22T00:37:20.901Z,26.55
2018-08-22T00:39:49.227Z,26.53
2018-08-22T00:42:17.938Z,26.53
2018-08-22T00:44:46.280Z,26.53
2018-08-22T00:47:14.675Z,26.51
2018-08-22T00:49:42.962Z,26.51
2018-08-22T00:52:11.318Z,26.50
2018-08-22T00:54:39.878Z,26.50
2018-08-22T00:57:08.191Z,26.50
2018-08-22T00:59:36.618Z,26.48
2018-08-22T01:02:04.905Z,26.48
2018-08-22T01:04:33.202Z,26.48
2018-08-22T01:07:01.517Z,26.46
2018-08-22T01:09:29.874Z,26.46
2018-08-22T01:11:58.234Z,26.46
2018-08-22T01:14:26.538Z,26.45
2018-08-22T01:16:54.838Z,26.45
2018-08-22T01:19:23.194Z,26.44
2018-08-22T01:21:51.494Z,26.44
2018-08-22T01:24:20.804Z,26.42
2018-08-22T01:26:49.090Z,26.41
2018-08-22T01:29:17.376Z,26.41
2018-08-22T01:31:45.661Z,26.39
2018-08-22T01:34:14.006Z,26.40
2018-08-22T01:36:42.271Z,26.38
2018-08-22T01:39:10.670Z,26.38
2018-08-22T01:41:38.922Z,26.38
2018-08-22T01:44:07.236Z,26.37
2018-08-22T01:46:35.522Z,26.37
2018-08-22T01:49:03.802Z,26.37
2018-08-22T01:51:32.064Z,26.36
2018-08-22T01:54:00.368Z,26.34
2018-08-22T01:56:28.701Z,26.34
2018-08-22T01:58:57.129Z,26.34
2018-08-22T02:01:25.275Z,26.33
2018-08-22T02:03:53.822Z,26.32
2018-08-22T02:06:22.093Z,26.32
2018-08-22T02:08:50.389Z,26.31
2018-08-22T02:11:18.687Z,26.31
2018-08-22T02:13:46.974Z,26.30
2018-08-22T02:16:15.316Z,26.29
2018-08-22T02:18:43.606Z,26.29
2018-08-22T02:21:11.890Z,26.29
2018-08-22T02:23:40.157Z,26.28
2018-08-22T02:26:08.406Z,26.27
2018-08-22T02:28:36.692Z,26.27
2018-08-22T02:31:05.079Z,26.26
2018-08-22T02:33:33.383Z,26.27
2018-08-22T02:36:01.674Z,26.25
2018-08-22T02:38:30.047Z,26.25
2018-08-22T02:40:58.371Z,26.24
2018-08-22T02:43:26.655Z,26.24
2018-08-22T02:45:55.114Z,26.23
2018-08-22T02:48:23.370Z,26.23
2018-08-22T02:50:51.692Z,26.23
2018-08-22T02:53:19.997Z,26.22
2018-08-22T02:55:48.295Z,26.22
2018-08-22T02:58:16.573Z,26.20
2018-08-22T03:00:44.949Z,26.20
2018-08-22T03:03:13.268Z,26.19
2018-08-22T03:05:41.566Z,26.19
2018-08-22T03:08:09.885Z,26.19
2018-08-22T03:10:38.183Z,26.18
2018-08-22T03:13:06.558Z,26.18
2018-08-22T03:15:34.914Z,26.16
2018-08-22T03:18:03.219Z,26.17
2018-08-22T03:20:31.509Z,26.16
2018-08-22T03:22:59.841Z,26.15
2018-08-22T03:25:28.474Z,26.15
2018-08-22T03:27:56.777Z,26.14
2018-08-22T03:30:25.099Z,26.13
2018-08-22T03:32:53.397Z,26.14
2018-08-22T03:35:21.715Z,26.13
2018-08-22T03:37:50.026Z,26.12
2018-08-22T03:40:18.340Z,26.12
2018-08-22T03:42:46.636Z,26.12
2018-08-22T03:45:14.942Z,26.12
2018-08-22T03:47:43.255Z,26.11
2018-08-22T03:50:11.530Z,26.11
2018-08-22T03:52:39.843Z,26.11
2018-08-22T03:55:08.207Z,26.10
2018-08-22T03:57:36.686Z,26.09
2018-08-22T04:00:05.253Z,26.08
2018-08-22T04:02:33.571Z,26.08
2018-08-22T04:05:02.071Z,26.07
2018-08-22T04:07:30.395Z,26.07
2018-08-22T04:09:58.770Z,26.07
2018-08-22T04:12:27.090Z,26.06
2018-08-22T04:14:55.465Z,26.06
2018-08-22T04:17:28.163Z,26.06
2018-08-22T04:19:59.331Z,26.06
2018-08-22T04:22:27.634Z,26.04
2018-08-22T04:24:56.013Z,26.05
2018-08-22T04:27:24.338Z,26.04
2018-08-22T04:29:59.251Z,26.04
2018-08-22T04:32:27.570Z,26.04
2018-08-22T04:34:55.958Z,26.03
2018-08-22T04:37:24.326Z,26.03
2018-08-22T04:39:52.643Z,26.02
2018-08-22T04:42:21.065Z,26.02
2018-08-22T04:44:49.728Z,26.00
2018-08-22T04:47:18.131Z,26.00
2018-08-22T04:49:46.470Z,25.99
2018-08-22T04:52:15.286Z,25.98
2018-08-22T04:54:43.679Z,25.98
2018-08-22T04:57:11.949Z,25.97
2018-08-22T04:59:40.205Z,25.97
2018-08-22T05:02:08.674Z,25.96
2018-08-22T05:04:37.067Z,25.94
2018-08-22T05:07:05.784Z,25.93
2018-08-22T05:09:34.077Z,25.93
2018-08-22T05:12:02.406Z,25.92
2018-08-22T05:14:30.808Z,25.92
2018-08-22T05:16:59.149Z,25.91
2018-08-22T05:19:27.454Z,25.93
2018-08-22T05:21:55.855Z,25.92
2018-08-22T05:24:24.242Z,25.92
2018-08-22T05:26:52.591Z,25.92
2018-08-22T05:29:20.946Z,25.91
2018-08-22T05:31:49.237Z,25.90
2018-08-22T05:34:17.635Z,25.89
2018-08-22T05:36:45.930Z,25.88
2018-08-22T05:39:14.234Z,25.87
2018-08-22T05:41:43.107Z,25.86
2018-08-22T05:44:11.414Z,25.86
2018-08-22T05:46:39.708Z,25.85
2018-08-22T05:49:08.908Z,25.85
2018-08-22T05:51:37.294Z,25.86
2018-08-22T05:54:05.576Z,25.86
2018-08-22T05:56:33.934Z,25.87
2018-08-22T05:59:02.203Z,25.88
2018-08-22T06:01:30.643Z,25.87
2018-08-22T06:03:58.954Z,25.87
2018-08-22T06:06:27.218Z,25.89
2018-08-22T06:08:55.470Z,25.88
2018-08-22T06:11:23.807Z,25.89
2018-08-22T06:13:52.066Z,25.89
2018-08-22T06:16:20.370Z,25.89
2018-08-22T06:18:48.657Z,25.90
2018-08-22T06:21:16.974Z,25.91
2018-08-22T06:23:45.282Z,25.90
2018-08-22T06:26:13.605Z,25.92
2018-08-22T06:28:41.869Z,25.94
2018-08-22T06:31:10.202Z,25.94
2018-08-22T06:33:38.502Z,25.95
2018-08-22T06:36:06.798Z,25.96
2018-08-22T06:38:35.061Z,25.97
2018-08-22T06:41:03.338Z,25.97
2018-08-22T06:43:31.658Z,25.99
2018-08-22T06:45:59.967Z,25.99
2018-08-22T06:48:28.231Z,26.01
2018-08-22T06:50:56.637Z,26.03
2018-08-22T06:53:24.951Z,26.03
2018-08-22T06:55:53.257Z,26.05
2018-08-22T06:58:21.515Z,26.05
2018-08-22T07:00:56.345Z,26.07
2018-08-22T07:03:24.607Z,26.07
2018-08-22T07:05:52.890Z,26.10
2018-08-22T07:08:21.159Z,26.11
2018-08-22T07:10:49.430Z,26.13
2018-08-22T07:13:17.737Z,26.15
2018-08-22T07:15:46.002Z,26.16
2018-08-22T07:18:14.994Z,26.18
2018-08-22T07:20:43.298Z,26.20
2018-08-22T07:23:11.575Z,26.20
2018-08-22T07:25:39.829Z,26.23
2018-08-22T07:28:08.171Z,26.25
2018-08-22T07:30:36.453Z,26.26
2018-08-22T07:33:04.778Z,26.29
2018-08-22T07:35:33.166Z,26.29
2018-08-22T07:38:01.482Z,26.31
2018-08-22T07:40:29.766Z,26.33
2018-08-22T07:42:58.038Z,26.34
2018-08-22T07:45:26.318Z,26.35
2018-08-22T07:47:54.598Z,26.37
2018-08-22T07:50:22.957Z,26.38
2018-08-22T07:52:56.474Z,26.40
2018-08-22T07:55:24.776Z,26.41
2018-08-22T07:57:53.058Z,26.43
2018-08-22T08:00:21.331Z,26.45
2018-08-22T08:02:49.643Z,26.47
2018-08-22T08:05:18.701Z,26.48
2018-08-22T08:07:46.998Z,26.49
2018-08-22T08:10:22.219Z,26.51
2018-08-22T08:12:50.595Z,26.52
2018-08-22T08:15:19.378Z,26.52
2018-08-22T08:17:47.682Z,26.55
2018-08-22T08:20:15.942Z,26.57
2018-08-22T08:22:44.235Z,26.56
2018-08-22T08:25:12.502Z,26.60
2018-08-22T08:27:40.769Z,26.61
2018-08-22T08:30:09.036Z,26.63
2018-08-22T08:32:37.307Z,26.64
2018-08-22T08:35:05.650Z,26.66
2018-08-22T08:37:33.950Z,26.67
2018-08-22T08:40:02.274Z,26.69
2018-08-22T08:42:30.610Z,26.70
2018-08-22T08:44:58.962Z,26.71
2018-08-22T08:47:27.444Z,26.74
2018-08-22T08:49:55.707Z,26.74
2018-08-22T08:52:24.027Z,26.76
2018-08-22T08:54:59.214Z,26.78
2018-08-22T08:57:27.629Z,26.78
2018-08-22T08:59:55.871Z,26.81
2018-08-22T09:02:24.431Z,26.82
2018-08-22T09:04:53.727Z,26.83
2018-08-22T09:07:22.065Z,26.86
2018-08-22T09:09:50.359Z,26.87
2018-08-22T09:12:18.732Z,26.90
2018-08-22T12:24:35.314Z,28.13
2018-08-22T12:27:03.701Z,28.13
2018-08-22T12:29:32.023Z,28.14
2018-08-22T12:32:00.351Z,28.15
2018-08-22T12:34:28.623Z,28.16
2018-08-22T12:36:56.930Z,28.17
2018-08-22T12:39:25.202Z,28.18
2018-08-22T12:41:53.507Z,28.19
2018-08-22T12:44:21.831Z,28.20
2018-08-22T12:46:50.119Z,28.21
2018-08-22T12:49:18.447Z,28.22
2018-08-22T12:51:46.762Z,28.22
2018-08-22T12:54:15.070Z,28.21
2018-08-22T12:56:43.363Z,28.22
2018-08-22T12:59:12.314Z,28.23
2018-08-22T13:01:40.583Z,28.22
2018-08-22T13:04:08.850Z,28.23
2018-08-22T13:06:37.176Z,28.23
2018-08-22T13:09:07.492Z,28.24
2018-08-22T13:11:35.760Z,28.25
2018-08-22T13:14:04.075Z,28.25
2018-08-22T13:16:32.331Z,28.25
2018-08-22T13:19:00.627Z,28.25
2018-08-22T13:21:29.074Z,28.27
2018-08-22T13:23:57.338Z,28.26
2018-08-22T13:26:25.701Z,28.26
2018-08-22T13:28:53.989Z,28.27
2018-08-22T13:31:22.341Z,28.28
2018-08-22T13:33:50.658Z,28.28
2018-08-22T13:36:19.128Z,28.28
2018-08-22T13:38:47.311Z,28.29
2018-08-22T13:41:15.623Z,28.29
2018-08-22T13:43:44.954Z,28.30
2018-08-22T13:46:13.266Z,28.31
2018-08-22T13:48:41.521Z,28.32
2018-08-22T13:51:09.800Z,28.32
2018-08-22T13:53:38.115Z,28.32
2018-08-22T13:56:06.525Z,28.31
2018-08-22T13:58:34.761Z,28.32
2018-08-22T14:01:03.283Z,28.32
2018-08-22T14:03:31.589Z,28.33
2018-08-22T14:05:59.882Z,28.34
2018-08-22T14:08:28.158Z,28.35
2018-08-22T14:10:56.433Z,28.37
2018-08-22T14:13:24.701Z,28.38
2018-08-22T14:15:53.048Z,28.40
2018-08-22T14:18:21.339Z,28.40
2018-08-22T14:20:49.658Z,28.42
2018-08-22T14:23:17.960Z,28.42
2018-08-22T14:25:46.304Z,28.43
2018-08-22T14:28:14.671Z,28.43
2018-08-22T14:30:43.031Z,28.44
2018-08-22T14:33:11.303Z,28.45
2018-08-22T14:35:39.590Z,28.46
2018-08-22T14:38:07.906Z,28.46
2018-08-22T14:40:36.196Z,28.47
2018-08-22T14:43:04.490Z,28.47
2018-08-22T14:45:32.842Z,28.48
2018-08-22T14:48:01.186Z,28.49
2018-08-22T14:50:29.511Z,28.48
2018-08-22T14:52:57.786Z,28.49
2018-08-22T14:55:26.082Z,28.50
2018-08-22T14:57:54.372Z,28.50
2018-08-22T15:00:22.729Z,28.49
2018-08-22T15:02:51.191Z,28.51
2018-08-22T15:05:19.302Z,28.51
2018-08-22T15:07:47.583Z,28.51
2018-08-22T15:10:17.515Z,28.51
2018-08-22T15:12:46.202Z,28.50
2018-08-22T15:15:14.572Z,28.51
2018-08-22T15:17:43.140Z,28.51
2018-08-22T15:20:11.451Z,28.52
2018-08-22T15:22:39.835Z,28.51
2018-08-22T15:25:08.588Z,28.50
2018-08-22T15:27:36.871Z,28.49
2018-08-22T15:30:05.698Z,28.49
2018-08-22T15:32:33.970Z,28.48
2018-08-22T15:35:02.308Z,28.49
2018-08-22T15:37:30.610Z,28.49
2018-08-22T15:39:58.899Z,28.49
2018-08-22T15:42:27.210Z,28.48
2018-08-22T15:44:55.511Z,28.48
2018-08-22T15:47:24.411Z,28.48
2018-08-22T15:49:52.615Z,28.48
2018-08-22T15:52:20.874Z,28.47
2018-08-22T15:55:04.511Z,28.47
2018-08-22T15:57:47.834Z,28.46
2018-08-22T16:00:26.144Z,28.47
2018-08-22T16:02:55.587Z,28.47
2018-08-22T16:05:23.895Z,28.48
2018-08-22T16:07:52.220Z,28.49
2018-08-22T16:10:20.539Z,28.47
2018-08-22T16:12:48.911Z,28.49
2018-08-22T16:15:17.180Z,28.48
2018-08-22T16:17:49.974Z,28.48
2018-08-22T16:20:18.343Z,28.48
2018-08-22T16:22:46.639Z,28.47
2018-08-22T16:25:14.961Z,28.47
2018-08-22T16:27:49.290Z,28.47
2018-08-22T16:30:17.709Z,28.47
2018-08-22T16:32:46.034Z,28.47
2018-08-22T16:35:14.346Z,28.48
2018-08-22T16:37:57.874Z,28.45
2018-08-22T16:40:26.170Z,28.47
2018-08-22T16:42:54.554Z,28.48
2018-08-22T16:45:22.975Z,28.49
2018-08-22T16:47:51.363Z,28.49
2018-08-22T16:50:21.584Z,28.50
2018-08-22T16:52:49.923Z,28.49
2018-08-22T16:55:20.405Z,28.50
2018-08-22T16:57:49.482Z,28.49
2018-08-22T17:00:22.270Z,28.49
2018-08-22T17:02:50.658Z,28.49
2018-08-22T17:05:18.931Z,28.49
2018-08-22T17:07:47.285Z,28.48
2018-08-22T17:10:15.618Z,28.48
2018-08-22T17:12:44.825Z,28.48
2018-08-22T17:15:13.301Z,28.47
2018-08-22T17:17:41.807Z,28.47
2018-08-22T17:20:10.515Z,28.46
2018-08-22T17:22:39.186Z,28.46
2018-08-22T17:25:07.754Z,28.45
2018-08-22T17:27:36.105Z,28.45
2018-08-22T17:30:04.435Z,28.45
2018-08-22T17:32:32.746Z,28.47
2018-08-22T17:35:01.009Z,28.46
2018-08-22T17:37:29.282Z,28.46
2018-08-22T17:39:57.530Z,28.46
2018-08-22T17:42:25.878Z,28.45
2018-08-22T17:44:54.126Z,28.45
2018-08-22T17:47:22.410Z,28.45
2018-08-22T17:50:01.813Z,28.43
2018-08-22T17:52:30.218Z,28.42
2018-08-22T17:54:58.490Z,28.41
2018-08-22T17:57:26.827Z,28.41
2018-08-22T17:59:56.938Z,28.41
2018-08-22T18:02:25.282Z,28.40
2018-08-22T18:05:05.245Z,28.40
2018-08-22T18:07:34.486Z,28.40
2018-08-22T18:10:03.420Z,28.39
2018-08-22T18:12:31.834Z,28.40
2018-08-22T18:15:01.912Z,28.38
2018-08-22T18:17:30.221Z,28.38
2018-08-22T18:19:58.654Z,28.38
2018-08-22T18:22:28.931Z,28.37
2018-08-22T18:24:57.845Z,28.38
2018-08-22T18:27:26.364Z,28.37
2018-08-22T18:29:54.647Z,28.37
2018-08-22T18:32:22.951Z,28.37
2018-08-22T18:35:00.658Z,28.36
2018-08-22T18:37:29.899Z,28.36
2018-08-22T18:40:10.089Z,28.36
2018-08-22T18:42:38.550Z,28.37
2018-08-22T18:45:07.087Z,28.35
2018-08-22T18:47:36.117Z,28.36
2018-08-22T18:50:04.487Z,28.36
2018-08-22T18:52:32.942Z,28.36
2018-08-22T18:55:01.945Z,28.35
2018-08-22T18:57:30.331Z,28.35
2018-08-22T18:59:58.891Z,28.34
2018-08-22T19:02:27.218Z,28.35
2018-08-22T19:04:57.498Z,28.33
2018-08-22T19:07:25.826Z,28.33
2018-08-22T19:09:54.265Z,28.33
2018-08-22T19:12:22.549Z,28.33
2018-08-22T19:14:50.846Z,28.32
2018-08-22T19:17:19.149Z,28.30
2018-08-22T19:19:48.536Z,28.29
2018-08-22T19:22:17.942Z,28.27
2018-08-22T19:25:04.390Z,28.26
2018-08-22T19:27:33.825Z,28.25
2018-08-22T19:30:02.861Z,28.24
2018-08-22T19:32:31.204Z,28.24
2018-08-22T19:34:59.498Z,28.22
2018-08-22T19:37:27.886Z,28.22
2018-08-22T19:40:02.767Z,28.21
2018-08-22T19:42:32.220Z,28.19
2018-08-22T19:45:00.629Z,28.19
2018-08-22T19:47:28.943Z,28.18
2018-08-22T19:49:57.422Z,28.16
2018-08-22T19:52:25.754Z,28.16
2018-08-22T19:54:54.086Z,28.15
2018-08-22T19:57:40.081Z,28.14
2018-08-22T20:00:10.027Z,28.11
2018-08-22T20:02:38.407Z,28.08
2018-08-22T20:05:07.835Z,28.09
2018-08-22T20:07:36.282Z,28.08
2018-08-22T20:10:04.725Z,28.06
2018-08-22T20:12:40.990Z,28.05
2018-08-22T20:15:09.458Z,28.04
2018-08-22T20:17:37.741Z,28.04
2018-08-22T20:20:07.013Z,28.03
2018-08-22T20:22:41.170Z,28.01
2018-08-22T20:25:09.823Z,28.00
2018-08-22T20:27:38.222Z,28.01
2018-08-22T20:30:12.378Z,27.99
2018-08-22T20:33:03.431Z,27.98
2018-08-22T20:35:36.738Z,27.97
2018-08-22T20:38:06.543Z,27.95
2018-08-22T20:40:34.834Z,27.93
2018-08-22T20:43:03.143Z,27.93
2018-08-22T20:45:34.250Z,27.92
2018-08-22T20:48:08.296Z,27.91
2018-08-22T20:50:40.791Z,27.90
2018-08-22T20:53:10.388Z,27.89
2018-08-22T20:55:38.789Z,27.89
2018-08-22T20:58:07.146Z,27.89
2018-08-22T21:00:36.556Z,27.87
2018-08-22T21:03:04.963Z,27.88
2018-08-22T21:05:33.206Z,27.86
2018-08-22T21:08:01.640Z,27.85
2018-08-22T21:10:30.342Z,27.85
2018-08-22T21:12:58.630Z,27.85
2018-08-22T21:15:26.938Z,27.84
2018-08-22T21:17:55.253Z,27.84
2018-08-22T21:20:24.602Z,27.83
2018-08-22T21:22:53.755Z,27.81
2018-08-22T21:25:22.230Z,27.81
2018-08-22T21:27:51.191Z,27.81
2018-08-22T21:30:19.636Z,27.79
2018-08-22T21:35:47.566Z,27.76
2018-08-22T21:38:19.331Z,27.76
2018-08-22T21:40:48.751Z,27.75
2018-08-22T21:43:17.210Z,27.74
2018-08-22T21:45:48.179Z,27.73
2018-08-22T21:48:19.402Z,27.73
2018-08-22T21:50:47.881Z,27.72
2018-08-22T21:53:16.459Z,27.71
2018-08-22T21:55:48.150Z,27.70
2018-08-22T21:58:16.512Z,27.69
2018-08-22T22:00:45.083Z,27.68
2018-08-22T22:03:14.070Z,27.68
2018-08-22T22:05:56.103Z,27.66
2018-08-22T22:08:24.758Z,27.65
2018-08-22T22:11:01.160Z,27.65
2018-08-22T22:13:29.900Z,27.64
2018-08-22T22:15:59.231Z,27.64
2018-08-22T22:18:27.789Z,27.63
2018-08-22T22:21:12.351Z,27.62
2018-08-22T22:23:49.090Z,27.61
2018-08-22T22:26:18.451Z,27.60
2018-08-22T22:28:46.849Z,27.58
2018-08-22T22:31:16.430Z,27.58
2018-08-22T22:33:57.948Z,27.56
2018-08-22T22:36:26.319Z,27.52
2018-08-22T22:38:54.763Z,27.54
2018-08-22T22:41:25.747Z,27.54
2018-08-22T22:43:54.170Z,27.53
2018-08-22T22:46:22.611Z,27.53
2018-08-22T22:48:50.926Z,27.51
2018-08-22T22:51:19.354Z,27.51
2018-08-22T22:53:47.746Z,27.50
2018-08-22T22:56:16.163Z,27.51
2018-08-22T22:58:44.504Z,27.49
2018-08-22T23:01:13.756Z,27.49
2018-08-22T23:03:42.389Z,27.45
2018-08-22T23:06:10.737Z,27.46
2018-08-22T23:08:39.061Z,27.45
2018-08-22T23:11:07.399Z,27.45
2018-08-22T23:13:35.787Z,27.45
2018-08-22T23:16:04.156Z,27.43
2018-08-22T23:18:32.486Z,27.43
2018-08-22T23:21:01.105Z,27.41
2018-08-22T23:23:36.875Z,27.41
2018-08-22T23:26:12.627Z,27.39
2018-08-22T23:28:41.493Z,27.38
2018-08-22T23:31:09.843Z,27.37
2018-08-22T23:33:38.219Z,27.37
2018-08-22T23:36:06.684Z,27.36
2018-08-22T23:38:36.679Z,27.36
2018-08-22T23:41:05.036Z,27.35
2018-08-22T23:43:39.146Z,27.35
2018-08-22T23:46:08.400Z,27.33
2018-08-22T23:48:37.274Z,27.32
2018-08-22T23:51:07.847Z,27.33
2018-08-22T23:53:52.462Z,27.31
2018-08-22T23:56:23.378Z,27.29
2018-08-22T23:58:52.168Z,27.29
